Tara — XUAB3 — position and weather

sailwx.info

Track history (hours):
 
Tides and Currents Weather Stations Pressure Air Temp Water Temp Dewpoint Dewpoint Depression Visibility Wind Speed Wind Dir Waves Ship Positions

Tara

Last reported at 2014-Dec-20 01:26 UTC. Time now 2014-Dec-21 18:00 UTC.
Position N 40°59' E 028°60'.

Length 82 m; draft 6.2 m.

Type: Ship. MMSI: 515410000.

Date/timePositionNaut miles runAvg speedWind from/ knotsBaromVisibWave heightAir tempDewpointWater temp
2014-Dec-20 01:26N 40°59' E 028°60'8 8.2
2014-Dec-20 00:30N 40°53' E 028°55'8 7.7
2014-Dec-19 23:32N 40°45' E 028°54'0 0.4
2014-Dec-19 22:18N 40°46' E 028°54'0 0.5
2014-Dec-19 21:17N 40°46' E 028°54'0 0.4
2014-Dec-19 20:26N 40°46' E 028°54'3 2.9
2014-Dec-19 19:28N 40°44' E 028°52'1 1.0
2014-Dec-19 18:24N 40°45' E 028°51'2 0.9
2014-Dec-19 16:33N 40°46' E 028°49'2 0.6
2014-Dec-19 13:24N 40°47' E 028°48'1 0.3
2014-Dec-19 11:22N 40°48' E 028°47'0 0.4
2014-Dec-19 10:03N 40°48' E 028°47'0 0.3
2014-Dec-19 09:33N 40°48' E 028°47'1 0.4
2014-Dec-19 08:13N 40°49' E 028°47'0 0.7
2014-Dec-19 07:30N 40°49' E 028°47'215 6.9
2014-Dec-18 00:14N 37°40' E 026°34'18 9.7
2014-Dec-17 22:22N 37°25' E 026°48'  
Track history (hours):
 
Tides and Currents Weather Stations Pressure Air Temp Water Temp Dewpoint Dewpoint Depression Visibility Wind Speed Wind Dir Waves Ship Positions

Tara

Last reported at 2014-Dec-20 01:26 UTC. Time now 2014-Dec-21 18:00 UTC.
Position N 40°59' E 028°60'.

Length 82 m; draft 6.2 m.

Type: Ship. MMSI: 515410000.

Date/timePositionNaut miles runAvg speedWind from/ knotsBaromVisibWave heightAir tempDewpointWater temp
2014-Dec-20 01:26N 40°59' E 028°60'8 8.2
2014-Dec-20 00:30N 40°53' E 028°55'8 7.7
2014-Dec-19 23:32N 40°45' E 028°54'0 0.4
2014-Dec-19 22:18N 40°46' E 028°54'0 0.5
2014-Dec-19 21:17N 40°46' E 028°54'0 0.4
2014-Dec-19 20:26N 40°46' E 028°54'3 2.9
2014-Dec-19 19:28N 40°44' E 028°52'1 1.0
2014-Dec-19 18:24N 40°45' E 028°51'2 0.9
2014-Dec-19 16:33N 40°46' E 028°49'2 0.6
2014-Dec-19 13:24N 40°47' E 028°48'1 0.3
2014-Dec-19 11:22N 40°48' E 028°47'0 0.4
2014-Dec-19 10:03N 40°48' E 028°47'0 0.3
2014-Dec-19 09:33N 40°48' E 028°47'1 0.4
2014-Dec-19 08:13N 40°49' E 028°47'0 0.7
2014-Dec-19 07:30N 40°49' E 028°47'215 6.9
2014-Dec-18 00:14N 37°40' E 026°34'18 9.7
2014-Dec-17 22:22N 37°25' E 026°48'  

Dump ship's entire track history